Time;durP1;ratioP1;P1;durP2;ratioP2;P2;SDS_P1;SDS_P2;PMS_P1;PMS_P2;Temp;Humidity;BMP_temperature;BMP_pressure;BME280_temperature;BME280_humidity;BME280_pressure;Samples;Min_cycle;Max_cycle;Signal;HPM_P1;HPM_P2
2023/08/31 00:01:14;;;;;;;3.97;1.30;;;18.80;99.90;;;;;;4918582;29;20201;-90
2023/08/31 00:03:46;;;;;;;5.35;1.35;;;18.90;99.90;;;;;;4936564;29;20208;-88
2023/08/31 00:06:17;;;;;;;7.43;1.50;;;19.00;99.90;;;;;;4936331;29;20192;-91
2023/08/31 00:08:48;;;;;;;5.93;1.27;;;19.10;99.90;;;;;;4950585;29;20204;-90
2023/08/31 00:11:19;;;;;;;4.50;1.17;;;19.20;99.90;;;;;;4955986;29;20218;-91
2023/08/31 00:13:52;;;;;;;7.25;1.55;;;19.20;99.90;;;;;;4955654;29;20728;-93
2023/08/31 00:16:28;;;;;;;6.10;1.45;;;19.30;99.90;;;;;;4953786;29;20723;-92
2023/08/31 00:19:01;;;;;;;5.25;1.40;;;19.30;99.90;;;;;;4973780;28;20176;-91
2023/08/31 00:21:32;;;;;;;8.48;1.42;;;19.40;99.90;;;;;;4973864;28;20247;-89
2023/08/31 00:24:03;;;;;;;6.50;1.50;;;19.50;99.90;;;;;;4952112;28;20545;-89
2023/08/31 00:26:34;;;;;;;7.25;1.40;;;19.60;99.90;;;;;;4961056;29;20223;-87
2023/08/31 00:29:10;;;;;;;3.63;1.00;;;19.70;99.90;;;;;;4970256;29;20238;-88
2023/08/31 00:31:42;;;;;;;4.25;1.20;;;19.70;99.90;;;;;;4962216;29;20710;-93
2023/08/31 00:34:14;;;;;;;5.53;1.63;;;19.70;99.90;;;;;;4959887;28;20224;-90
2023/08/31 00:36:46;;;;;;;5.80;1.10;;;19.80;99.90;;;;;;4940127;29;20193;-92
2023/08/31 00:39:20;;;;;;;5.13;1.20;;;19.70;99.90;;;;;;4965999;29;20204;-92
2023/08/31 00:41:53;;;;;;;4.55;1.08;;;19.60;99.90;;;;;;4953595;29;20255;-91
2023/08/31 00:44:26;;;;;;;6.57;1.48;;;19.40;99.90;;;;;;4910798;29;20263;-92
2023/08/31 00:46:59;;;;;;;7.90;1.10;;;19.30;99.90;;;;;;4937225;29;20216;-90
2023/08/31 00:49:30;;;;;;;4.20;0.88;;;19.30;99.90;;;;;;4948217;29;20196;-93
2023/08/31 00:52:04;;;;;;;7.40;1.48;;;19.30;99.90;;;;;;4960372;29;20199;-93
2023/08/31 00:54:35;;;;;;;6.13;1.20;;;19.20;99.90;;;;;;4947262;29;20240;-93
2023/08/31 00:57:07;;;;;;;4.22;1.13;;;19.20;99.90;;;;;;4942743;29;20189;-87
2023/08/31 00:59:41;;;;;;;11.38;1.35;;;19.50;99.90;;;;;;4957265;29;20263;-92
2023/08/31 01:02:21;;;;;;;5.38;1.30;;;19.60;99.90;;;;;;4944289;29;20553;-94
2023/08/31 01:05:06;;;;;;;5.90;1.40;;;19.70;99.90;;;;;;4935502;29;20201;-93
2023/08/31 01:07:52;;;;;;;6.97;1.63;;;19.80;99.90;;;;;;4951619;29;20212;-93
2023/08/31 01:10:32;;;;;;;9.43;1.42;;;20.00;99.90;;;;;;4951158;29;20224;-92
2023/08/31 01:13:10;;;;;;;6.43;1.13;;;20.10;99.90;;;;;;4953446;29;20204;-93
2023/08/31 01:15:53;;;;;;;6.72;1.73;;;20.10;99.90;;;;;;4944834;29;20266;-93
2023/08/31 01:18:26;;;;;;;7.30;1.55;;;20.00;99.90;;;;;;4955244;29;20200;-89
2023/08/31 01:21:05;;;;;;;9.93;1.58;;;19.90;99.90;;;;;;4940206;29;20201;-92
2023/08/31 01:23:49;;;;;;;9.88;1.83;;;19.80;99.90;;;;;;4940237;29;20640;-92
2023/08/31 01:26:21;;;;;;;4.35;0.95;;;19.80;99.90;;;;;;4945445;29;20212;-92
2023/08/31 01:28:54;;;;;;;5.93;1.42;;;19.90;99.90;;;;;;4939681;29;20192;-95
2023/08/31 01:31:25;;;;;;;6.45;1.00;;;20.00;99.90;;;;;;4946616;29;20196;-94
2023/08/31 01:33:56;;;;;;;5.18;1.35;;;20.10;99.90;;;;;;4944792;29;20654;-94
2023/08/31 01:36:31;;;;;;;7.30;1.20;;;20.20;99.90;;;;;;4939417;29;20197;-93
2023/08/31 01:39:10;;;;;;;5.75;1.25;;;20.30;99.90;;;;;;4951823;29;20958;-94
2023/08/31 01:41:47;;;;;;;7.28;1.48;;;20.40;99.90;;;;;;4959144;29;20223;-94
2023/08/31 01:44:20;;;;;;;5.50;1.40;;;20.50;99.90;;;;;;4952334;29;20196;-93
2023/08/31 01:46:56;;;;;;;4.55;1.25;;;20.50;99.90;;;;;;4958603;29;20231;-94
2023/08/31 01:49:27;;;;;;;5.28;1.30;;;20.60;99.90;;;;;;4955879;29;20202;-93
2023/08/31 01:51:58;;;;;;;5.93;1.38;;;20.50;99.90;;;;;;4957823;29;20205;-93
2023/08/31 01:54:31;;;;;;;8.20;1.52;;;20.40;99.90;;;;;;4949714;29;20239;-92
2023/08/31 01:57:02;;;;;;;6.03;1.27;;;20.40;99.90;;;;;;4938245;29;20649;-93
2023/08/31 01:59:33;;;;;;;5.20;1.40;;;20.20;99.90;;;;;;4938714;29;20200;-93
2023/08/31 02:02:04;;;;;;;7.55;1.52;;;20.10;99.90;;;;;;4949992;28;20191;-93
2023/08/31 02:04:35;;;;;;;6.63;1.55;;;20.30;99.90;;;;;;4948756;29;20291;-92
2023/08/31 02:07:06;;;;;;;5.93;1.88;;;20.40;99.90;;;;;;4946335;29;20220;-92
2023/08/31 02:09:40;;;;;;;7.00;1.55;;;20.50;99.90;;;;;;4959085;29;20199;-90
2023/08/31 02:12:11;;;;;;;6.85;1.50;;;20.50;99.90;;;;;;4943682;29;20198;-92
2023/08/31 02:14:42;;;;;;;7.00;1.90;;;20.60;99.90;;;;;;4938911;29;20228;-92
2023/08/31 02:17:13;;;;;;;7.63;1.60;;;20.80;99.90;;;;;;4954148;29;20211;-92
2023/08/31 02:19:45;;;;;;;8.02;1.50;;;20.90;99.90;;;;;;4948727;29;20201;-92
2023/08/31 02:25:03;;;;;;;6.05;1.65;;;20.90;99.90;;;;;;4943972;29;20217;-90
2023/08/31 02:27:34;;;;;;;5.25;1.30;;;20.90;99.90;;;;;;4944740;29;20201;-90
2023/08/31 02:30:04;;;;;;;4.68;1.25;;;20.70;99.90;;;;;;4942358;29;20212;-93
2023/08/31 02:32:35;;;;;;;4.70;1.40;;;20.70;99.90;;;;;;4965681;28;20200;-93
2023/08/31 02:35:07;;;;;;;4.00;1.25;;;20.50;99.90;;;;;;4942908;29;20227;-91
2023/08/31 02:37:39;;;;;;;7.00;1.80;;;20.50;99.90;;;;;;4948283;29;20197;-90
2023/08/31 02:40:15;;;;;;;6.28;1.50;;;20.60;99.90;;;;;;4938672;29;20205;-93
2023/08/31 02:42:46;;;;;;;5.28;1.25;;;20.60;99.90;;;;;;4937825;29;20279;-93
2023/08/31 02:45:18;;;;;;;8.38;2.42;;;20.80;99.90;;;;;;4937743;29;20211;-92
2023/08/31 02:47:49;;;;;;;6.75;1.65;;;20.90;99.90;;;;;;4937370;29;20262;-92
2023/08/31 02:50:20;;;;;;;8.68;1.67;;;21.00;99.90;;;;;;4944488;29;20206;-90
2023/08/31 02:52:51;;;;;;;7.40;1.50;;;21.10;99.90;;;;;;4936930;29;20688;-90
2023/08/31 02:55:25;;;;;;;5.68;1.55;;;21.30;99.90;;;;;;4944374;29;20239;-85
2023/08/31 02:57:56;;;;;;;7.55;1.58;;;21.20;99.90;;;;;;4956055;29;20189;-95
2023/08/31 03:00:28;;;;;;;4.40;1.02;;;21.40;99.90;;;;;;4953437;29;20212;-91
2023/08/31 03:02:58;;;;;;;5.57;1.10;;;21.40;99.90;;;;;;4937822;29;20288;-89
2023/08/31 03:05:30;;;;;;;6.85;1.30;;;21.60;99.90;;;;;;4948280;28;20209;-90
2023/08/31 03:08:01;;;;;;;5.47;1.00;;;21.60;99.90;;;;;;4928429;29;20206;-91
2023/08/31 03:10:34;;;;;;;5.53;1.30;;;21.70;99.90;;;;;;4948797;29;20283;-93
2023/08/31 03:13:05;;;;;;;4.85;1.30;;;21.80;99.90;;;;;;4957962;29;20678;-93
2023/08/31 03:15:37;;;;;;;5.78;1.48;;;21.70;99.90;;;;;;4945064;29;20236;-92
2023/08/31 03:18:08;;;;;;;4.47;1.35;;;21.80;99.90;;;;;;4937423;29;20203;-89
2023/08/31 03:20:39;;;;;;;4.47;1.38;;;21.70;99.90;;;;;;4955102;29;20208;-90
2023/08/31 03:23:11;;;;;;;8.18;1.42;;;21.70;99.90;;;;;;4936124;29;20232;-90
2023/08/31 03:25:46;;;;;;;5.75;1.48;;;21.70;99.90;;;;;;4937922;29;20664;-90
2023/08/31 03:28:18;;;;;;;5.13;1.23;;;21.70;99.90;;;;;;4938145;29;20200;-92
2023/08/31 03:30:56;;;;;;;6.88;1.45;;;21.40;99.90;;;;;;4937298;29;20236;-92
2023/08/31 03:33:28;;;;;;;5.85;1.60;;;21.40;99.90;;;;;;4940938;29;20235;-90
2023/08/31 03:36:04;;;;;;;3.45;1.33;;;21.40;99.90;;;;;;4962474;29;20212;-89
2023/08/31 03:38:38;;;;;;;5.43;1.70;;;21.70;99.90;;;;;;4944039;29;20228;-93
2023/08/31 03:41:12;;;;;;;8.60;1.90;;;21.60;99.90;;;;;;4948004;29;20192;-93
2023/08/31 03:43:43;;;;;;;5.47;1.27;;;21.70;99.90;;;;;;4921438;29;20233;-92
2023/08/31 03:46:19;;;;;;;7.40;1.27;;;21.60;99.90;;;;;;4922599;29;20199;-89
2023/08/31 03:48:51;;;;;;;7.22;1.23;;;21.40;99.90;;;;;;4947976;28;20299;-92
2023/08/31 03:51:21;;;;;;;8.00;1.08;;;21.50;99.90;;;;;;4958605;28;20641;-91
2023/08/31 03:53:54;;;;;;;5.10;1.42;;;21.60;99.90;;;;;;4941016;29;20232;-92
2023/08/31 03:56:29;;;;;;;3.95;1.13;;;21.50;99.90;;;;;;4937654;29;20232;-93
2023/08/31 03:59:00;;;;;;;5.07;1.30;;;21.40;99.90;;;;;;4938865;29;20196;-92
2023/08/31 04:01:31;;;;;;;6.60;1.50;;;21.40;99.90;;;;;;4930489;29;20204;-90
2023/08/31 04:04:02;;;;;;;5.97;1.30;;;21.40;99.90;;;;;;4943901;29;20200;-92
2023/08/31 04:06:35;;;;;;;4.32;1.15;;;21.40;99.90;;;;;;4925893;29;20233;-90
2023/08/31 04:09:06;;;;;;;5.57;1.27;;;21.40;99.90;;;;;;4946763;29;20224;-91
2023/08/31 04:11:39;;;;;;;5.72;1.40;;;21.50;99.90;;;;;;4938287;29;20200;-92
2023/08/31 04:14:11;;;;;;;6.55;1.48;;;21.50;99.90;;;;;;4918095;29;20204;-91
2023/08/31 04:16:42;;;;;;;5.03;1.42;;;21.50;99.90;;;;;;4919347;29;20236;-90
2023/08/31 04:19:13;;;;;;;6.72;1.73;;;21.40;99.90;;;;;;4920703;29;20194;-89
2023/08/31 04:21:43;;;;;;;5.82;1.40;;;21.20;99.90;;;;;;4939141;29;20193;-90
2023/08/31 04:24:14;;;;;;;7.53;1.23;;;21.20;99.90;;;;;;4951878;29;20196;-90
2023/08/31 04:26:51;;;;;;;5.72;1.17;;;21.00;99.90;;;;;;4966125;29;20246;-89
2023/08/31 04:29:21;;;;;;;6.88;1.48;;;20.90;99.90;;;;;;4956541;29;20298;-91
2023/08/31 04:31:54;;;;;;;4.63;1.30;;;20.90;99.90;;;;;;4951626;29;20259;-90
2023/08/31 04:34:25;;;;;;;4.60;1.15;;;20.90;99.90;;;;;;4931207;29;20638;-90
2023/08/31 04:36:57;;;;;;;8.15;1.05;;;21.00;99.90;;;;;;4932667;29;20560;-91
2023/08/31 04:39:28;;;;;;;6.10;1.45;;;21.10;99.90;;;;;;4946136;29;20200;-90
2023/08/31 04:42:02;;;;;;;8.38;1.45;;;21.20;99.90;;;;;;4936007;29;20234;-90
2023/08/31 04:44:33;;;;;;;8.85;1.70;;;21.20;99.90;;;;;;4916507;29;20200;-91
2023/08/31 04:47:04;;;;;;;6.68;1.20;;;21.30;99.90;;;;;;4935238;29;20636;-89
2023/08/31 04:49:35;;;;;;;7.38;1.40;;;21.30;99.90;;;;;;4938365;29;20556;-90
2023/08/31 04:52:06;;;;;;;7.63;1.67;;;21.30;99.90;;;;;;4936267;29;20290;-90
2023/08/31 04:54:37;;;;;;;12.95;1.60;;;21.30;99.90;;;;;;4936470;29;20248;-89
2023/08/31 04:57:10;;;;;;;8.50;1.52;;;21.30;99.90;;;;;;4937805;29;20204;-90
2023/08/31 04:59:41;;;;;;;8.60;1.55;;;21.30;99.90;;;;;;4940457;29;20188;-91
2023/08/31 05:02:11;;;;;;;6.95;1.30;;;21.30;99.90;;;;;;4956536;29;20426;-90
2023/08/31 05:04:42;;;;;;;8.57;1.67;;;21.30;99.90;;;;;;4958590;29;20215;-90
2023/08/31 05:07:14;;;;;;;10.18;1.65;;;21.20;99.90;;;;;;4941898;28;20209;-94
2023/08/31 05:09:45;;;;;;;6.85;1.33;;;20.80;99.90;;;;;;4971340;28;20184;-95
2023/08/31 05:12:19;;;;;;;7.95;1.73;;;20.70;99.90;;;;;;4936874;28;20237;-91
2023/08/31 05:14:50;;;;;;;6.53;1.60;;;20.60;99.90;;;;;;4962247;29;20237;-91
2023/08/31 05:17:21;;;;;;;8.80;1.80;;;20.60;99.90;;;;;;4942281;29;20212;-89
2023/08/31 05:19:52;;;;;;;6.90;1.40;;;20.60;99.90;;;;;;4935746;28;20212;-88
2023/08/31 05:22:23;;;;;;;9.27;1.50;;;20.60;99.90;;;;;;4943024;29;20244;-88
2023/08/31 05:24:54;;;;;;;4.85;1.50;;;20.50;99.90;;;;;;4936823;29;20204;-90
2023/08/31 05:27:28;;;;;;;5.35;1.20;;;20.50;99.90;;;;;;4927485;29;20288;-89
2023/08/31 05:29:59;;;;;;;6.07;1.38;;;20.40;99.90;;;;;;4947947;29;20641;-89
2023/08/31 05:32:33;;;;;;;6.93;1.20;;;20.40;99.90;;;;;;4955525;29;20200;-91
2023/08/31 05:35:05;;;;;;;5.65;1.33;;;20.30;99.90;;;;;;4969724;29;20469;-90
2023/08/31 05:37:37;;;;;;;6.10;1.40;;;20.30;99.90;;;;;;4949761;29;20235;-90
2023/08/31 05:40:10;;;;;;;6.32;1.70;;;20.30;99.90;;;;;;4952815;29;20288;-90
2023/08/31 05:42:43;;;;;;;4.47;1.48;;;20.40;99.90;;;;;;4948126;29;20200;-89
2023/08/31 05:45:15;;;;;;;4.80;1.17;;;20.50;99.90;;;;;;4958179;29;20204;-90
2023/08/31 05:47:46;;;;;;;6.75;1.30;;;20.60;99.90;;;;;;4957392;29;20663;-88
2023/08/31 05:50:16;;;;;;;7.57;1.35;;;20.60;99.90;;;;;;4956737;29;20196;-87
2023/08/31 05:52:47;;;;;;;6.50;1.13;;;20.60;99.90;;;;;;4956621;29;20240;-88
2023/08/31 05:55:18;;;;;;;5.95;1.45;;;20.50;99.90;;;;;;4956284;28;20236;-90
2023/08/31 05:57:53;;;;;;;4.07;1.40;;;20.50;99.90;;;;;;4956022;29;20188;-87
2023/08/31 06:00:24;;;;;;;7.53;1.42;;;20.50;99.90;;;;;;4937854;29;20199;-88
2023/08/31 06:02:54;;;;;;;3.67;1.30;;;20.40;99.90;;;;;;4937683;29;20663;-88
2023/08/31 06:05:27;;;;;;;3.58;1.15;;;20.40;99.90;;;;;;4932673;29;20213;-90
2023/08/31 06:08:11;;;;;;;5.38;1.55;;;20.40;99.90;;;;;;4918638;29;20244;-90
2023/08/31 06:10:43;;;;;;;8.48;1.63;;;20.50;99.90;;;;;;4933146;29;20608;-89
2023/08/31 06:13:21;;;;;;;6.60;1.40;;;20.60;99.90;;;;;;4920961;29;20281;-90
2023/08/31 06:15:51;;;;;;;6.63;1.20;;;20.70;99.90;;;;;;4954672;28;20324;-90
2023/08/31 06:18:25;;;;;;;5.07;1.27;;;20.80;99.90;;;;;;4946712;29;20185;-88
2023/08/31 06:20:56;;;;;;;4.20;1.20;;;21.00;99.90;;;;;;4960992;29;20203;-89
2023/08/31 06:23:27;;;;;;;4.90;1.23;;;21.00;99.90;;;;;;4952550;29;20220;-91
2023/08/31 06:25:58;;;;;;;5.00;1.35;;;21.10;99.90;;;;;;4947453;29;20204;-90
2023/08/31 06:28:31;;;;;;;8.75;1.75;;;21.10;99.90;;;;;;4952137;29;20588;-90
2023/08/31 06:31:02;;;;;;;5.28;1.10;;;21.20;99.90;;;;;;4938848;29;20204;-91
2023/08/31 06:33:33;;;;;;;4.10;1.17;;;21.00;99.90;;;;;;4941695;28;20293;-92
2023/08/31 06:36:04;;;;;;;5.15;1.17;;;21.10;99.90;;;;;;4956388;28;20238;-91
2023/08/31 06:38:35;;;;;;;6.43;1.38;;;21.10;99.90;;;;;;4939375;29;20208;-90
2023/08/31 06:41:06;;;;;;;5.13;1.48;;;21.00;99.90;;;;;;4938128;29;20649;-90
2023/08/31 06:43:39;;;;;;;5.53;1.38;;;20.90;99.90;;;;;;4937917;29;20216;-91
2023/08/31 06:46:24;;;;;;;6.15;1.33;;;21.00;99.90;;;;;;4938109;29;20667;-93
2023/08/31 06:48:55;;;;;;;5.10;1.23;;;20.90;99.90;;;;;;4941847;29;20251;-91
2023/08/31 06:51:26;;;;;;;4.47;1.20;;;20.80;99.90;;;;;;4956821;29;20206;-90
2023/08/31 06:54:12;;;;;;;6.00;1.30;;;20.60;99.90;;;;;;4957258;28;20279;-91
2023/08/31 06:56:45;;;;;;;4.28;1.13;;;20.40;99.90;;;;;;4934426;29;20265;-92
2023/08/31 06:59:25;;;;;;;6.93;1.38;;;20.30;99.90;;;;;;4936722;29;20189;-90
2023/08/31 07:01:57;;;;;;;4.30;1.20;;;20.20;99.90;;;;;;4941351;29;20192;-88
2023/08/31 07:04:29;;;;;;;5.93;1.50;;;20.00;99.90;;;;;;4942768;29;20204;-90
2023/08/31 07:07:05;;;;;;;4.57;1.30;;;19.90;99.90;;;;;;4947764;29;20232;-89
2023/08/31 07:09:37;;;;;;;5.13;1.30;;;19.80;99.90;;;;;;4936862;29;20236;-87
2023/08/31 07:12:08;;;;;;;7.78;1.48;;;19.80;99.90;;;;;;4936669;29;20204;-89
2023/08/31 07:14:44;;;;;;;5.32;0.93;;;19.70;99.90;;;;;;4925546;29;20288;-90
2023/08/31 07:17:14;;;;;;;4.70;1.10;;;19.70;99.90;;;;;;4948449;29;20287;-88
2023/08/31 07:19:46;;;;;;;3.03;0.90;;;19.60;99.90;;;;;;4947931;29;20201;-90
2023/08/31 07:22:20;;;;;;;7.03;1.20;;;19.60;99.90;;;;;;4937008;29;20645;-91
2023/08/31 07:24:54;;;;;;;5.70;1.50;;;19.50;99.90;;;;;;4937139;29;20194;-89
2023/08/31 07:27:24;;;;;;;6.22;1.23;;;19.40;99.90;;;;;;4948355;29;20235;-90
2023/08/31 07:29:58;;;;;;;5.85;1.20;;;19.30;99.90;;;;;;4956725;29;20210;-92
2023/08/31 07:32:30;;;;;;;6.28;1.20;;;19.20;99.90;;;;;;4938724;29;20211;-90
2023/08/31 07:35:04;;;;;;;5.75;1.52;;;19.10;99.90;;;;;;4954828;29;20188;-92
2023/08/31 07:37:37;;;;;;;7.68;1.50;;;19.10;99.90;;;;;;4952505;29;20390;-90
2023/08/31 07:40:09;;;;;;;4.03;1.10;;;19.00;99.90;;;;;;4956041;29;20215;-91
2023/08/31 07:42:40;;;;;;;6.32;1.73;;;19.00;99.90;;;;;;4956752;29;20211;-92
2023/08/31 07:45:14;;;;;;;6.53;1.27;;;18.90;99.90;;;;;;4955347;29;20723;-90
2023/08/31 07:47:46;;;;;;;7.88;1.33;;;18.90;99.90;;;;;;4955297;29;20202;-89
2023/08/31 07:50:17;;;;;;;6.13;1.30;;;18.80;99.90;;;;;;4941733;29;20251;-92
2023/08/31 07:52:48;;;;;;;3.60;1.05;;;18.80;99.90;;;;;;4956028;29;20210;-91
2023/08/31 07:55:19;;;;;;;5.80;0.90;;;18.70;99.90;;;;;;4955135;28;20232;-91
2023/08/31 07:57:50;;;;;;;5.07;1.25;;;18.70;99.90;;;;;;4956093;28;20227;-91
2023/08/31 08:00:23;;;;;;;6.68;1.50;;;18.60;99.90;;;;;;4957360;28;20203;-94
2023/08/31 08:02:55;;;;;;;5.53;1.20;;;18.60;99.90;;;;;;4946966;29;20270;-91
2023/08/31 08:05:26;;;;;;;6.57;1.20;;;18.60;99.90;;;;;;4946885;29;20212;-91
2023/08/31 08:07:57;;;;;;;6.07;1.10;;;18.60;99.90;;;;;;4937573;29;20197;-90
2023/08/31 08:10:28;;;;;;;6.95;1.45;;;18.50;99.90;;;;;;4945385;29;20208;-89
2023/08/31 08:13:00;;;;;;;5.50;1.27;;;18.50;99.90;;;;;;4950997;29;20204;-92
2023/08/31 08:15:34;;;;;;;6.22;1.40;;;18.50;99.90;;;;;;4941748;29;20572;-92
2023/08/31 08:18:05;;;;;;;5.75;1.30;;;18.50;99.90;;;;;;4957417;29;20667;-91
2023/08/31 08:20:36;;;;;;;5.80;1.45;;;18.40;99.90;;;;;;4965024;28;20215;-90
2023/08/31 08:23:08;;;;;;;8.63;1.42;;;18.40;99.90;;;;;;4946666;29;20196;-91
2023/08/31 08:25:39;;;;;;;5.95;1.30;;;18.40;99.90;;;;;;4939604;29;20225;-90
2023/08/31 08:28:10;;;;;;;6.15;1.48;;;18.30;99.90;;;;;;4948418;29;20203;-92
2023/08/31 08:30:44;;;;;;;5.95;1.63;;;18.30;99.90;;;;;;4957488;29;20204;-92
2023/08/31 08:33:15;;;;;;;6.55;1.63;;;18.30;99.90;;;;;;4955333;29;20192;-90
2023/08/31 08:35:46;;;;;;;3.28;1.45;;;18.30;99.90;;;;;;4936826;29;20204;-90
2023/08/31 08:38:17;;;;;;;4.85;1.60;;;18.30;99.90;;;;;;4949660;29;20232;-90
2023/08/31 08:40:48;;;;;;;5.25;1.35;;;18.30;99.90;;;;;;4949116;29;20193;-86
2023/08/31 08:43:22;;;;;;;5.43;1.48;;;18.30;99.90;;;;;;4936177;29;20196;-92
2023/08/31 08:45:57;;;;;;;7.60;1.40;;;18.30;99.90;;;;;;4935417;29;20672;-93
2023/08/31 08:48:28;;;;;;;7.28;1.83;;;18.20;99.90;;;;;;4928609;29;20200;-94
2023/08/31 08:51:00;;;;;;;7.30;1.80;;;18.20;99.90;;;;;;4938382;29;20260;-93
2023/08/31 08:53:31;;;;;;;5.57;1.75;;;18.20;99.90;;;;;;4931255;29;20227;-93
2023/08/31 08:56:03;;;;;;;5.28;1.65;;;18.20;99.90;;;;;;4957271;29;20192;-93
2023/08/31 08:58:35;;;;;;;6.15;1.98;;;18.20;99.90;;;;;;4960115;29;20221;-93
2023/08/31 09:01:10;;;;;;;7.50;1.88;;;18.20;99.90;;;;;;4959154;29;20817;-92
2023/08/31 09:03:43;;;;;;;5.28;1.50;;;18.10;99.90;;;;;;4952606;29;20208;-93
2023/08/31 09:06:14;;;;;;;7.40;1.70;;;18.10;99.90;;;;;;4943492;28;20235;-93
2023/08/31 09:08:45;;;;;;;4.68;1.52;;;18.10;99.90;;;;;;4940153;29;20196;-94
2023/08/31 09:11:24;;;;;;;7.70;1.80;;;18.10;99.90;;;;;;4921541;29;20665;-94
2023/08/31 09:13:55;;;;;;;6.18;1.58;;;18.10;99.90;;;;;;4947825;29;20216;-94
2023/08/31 09:16:32;;;;;;;7.22;1.83;;;18.10;99.90;;;;;;4958254;29;20228;-92
2023/08/31 09:19:19;;;;;;;5.50;1.48;;;18.10;99.90;;;;;;4935515;29;20203;-91
2023/08/31 09:21:52;;;;;;;7.93;1.50;;;18.10;99.90;;;;;;4952748;29;20210;-94
2023/08/31 09:24:23;;;;;;;6.85;1.42;;;18.10;99.90;;;;;;4965250;28;20201;-94
2023/08/31 09:26:59;;;;;;;9.00;2.15;;;18.10;99.90;;;;;;4939596;29;20307;-96
2023/08/31 09:29:32;;;;;;;7.03;2.63;;;18.10;99.90;;;;;;4946982;28;20202;-94
2023/08/31 09:32:06;;;;;;;7.00;3.50;;;18.10;99.90;;;;;;4940385;29;20596;-95
2023/08/31 09:34:40;;;;;;;9.18;5.00;;;18.10;99.90;;;;;;4952654;29;20224;-92
2023/08/31 09:37:12;;;;;;;8.40;5.72;;;18.10;99.90;;;;;;4955904;28;20305;-87
2023/08/31 09:39:43;;;;;;;9.70;4.60;;;18.10;99.90;;;;;;4956335;29;20200;-91
2023/08/31 09:42:14;;;;;;;12.38;5.75;;;18.10;99.90;;;;;;4957670;29;20184;-89
2023/08/31 09:44:47;;;;;;;19.13;10.73;;;18.10;99.90;;;;;;4957639;29;20276;-90
2023/08/31 09:47:21;;;;;;;15.00;7.07;;;18.20;99.90;;;;;;4922559;29;20216;-89
2023/08/31 09:49:53;;;;;;;16.35;6.97;;;18.20;99.90;;;;;;4938419;29;20202;-88
2023/08/31 09:52:25;;;;;;;10.45;4.25;;;18.30;99.90;;;;;;4941257;29;20207;-89
2023/08/31 09:54:57;;;;;;;10.65;4.10;;;18.30;99.90;;;;;;4946805;29;20232;-87
2023/08/31 09:57:29;;;;;;;11.80;4.68;;;18.30;99.90;;;;;;4956900;29;20360;-88
2023/08/31 10:00:00;;;;;;;10.05;3.17;;;18.30;99.90;;;;;;4957444;29;20188;-89
2023/08/31 10:02:34;;;;;;;6.55;2.58;;;18.30;99.90;;;;;;4945465;29;20196;-87
2023/08/31 10:05:05;;;;;;;13.57;4.90;;;18.30;99.90;;;;;;4958480;29;20198;-89
2023/08/31 10:07:36;;;;;;;16.35;6.68;;;18.30;99.90;;;;;;4961781;28;20647;-88
2023/08/31 10:10:08;;;;;;;17.20;6.65;;;18.30;99.90;;;;;;4952743;29;20664;-89
2023/08/31 10:12:40;;;;;;;13.13;4.65;;;18.30;99.90;;;;;;4955246;29;20207;-87
2023/08/31 10:15:12;;;;;;;11.38;4.43;;;18.30;99.90;;;;;;4939432;29;20229;-89
2023/08/31 10:17:46;;;;;;;11.85;4.75;;;18.30;99.90;;;;;;4938266;29;20594;-89
2023/08/31 10:20:19;;;;;;;10.70;3.65;;;18.30;99.90;;;;;;4939255;29;20208;-86
2023/08/31 10:22:51;;;;;;;8.68;2.92;;;18.20;99.90;;;;;;4937877;29;20208;-89
2023/08/31 10:25:22;;;;;;;9.10;2.80;;;18.20;99.90;;;;;;4945040;29;20588;-87
2023/08/31 10:27:54;;;;;;;10.43;3.97;;;18.20;99.90;;;;;;4971655;28;20198;-87
2023/08/31 10:30:30;;;;;;;10.68;4.13;;;18.10;99.90;;;;;;4956715;29;20193;-87
2023/08/31 10:33:26;;;;;;;15.73;5.70;;;18.20;99.90;;;;;;4951578;29;20603;-94
2023/08/31 10:35:59;;;;;;;10.45;3.88;;;18.10;99.90;;;;;;4940270;29;20204;-88
2023/08/31 10:38:31;;;;;;;8.45;3.10;;;18.10;99.90;;;;;;4948957;29;20219;-88
2023/08/31 10:41:23;;;;;;;9.32;3.47;;;18.00;99.90;;;;;;4939120;29;20622;-89
2023/08/31 10:43:57;;;;;;;12.38;3.95;;;18.00;99.90;;;;;;4947247;29;20206;-89
2023/08/31 10:46:32;;;;;;;12.27;4.25;;;18.00;99.90;;;;;;4951120;29;20243;-88
2023/08/31 10:49:15;;;;;;;8.80;3.75;;;18.00;99.90;;;;;;4966796;28;20199;-88
2023/08/31 10:54:34;;;;;;;13.50;4.80;;;18.00;99.90;;;;;;4946428;28;20236;-89
2023/08/31 10:57:10;;;;;;;11.90;4.53;;;17.90;99.90;;;;;;4937310;29;20715;-92
2023/08/31 10:59:50;;;;;;;15.82;6.00;;;17.90;99.90;;;;;;4937051;29;20205;-89
2023/08/31 11:02:36;;;;;;;12.90;4.78;;;17.90;99.90;;;;;;4946427;29;20213;-89
2023/08/31 11:05:11;;;;;;;11.57;4.35;;;17.90;99.90;;;;;;4935884;29;20217;-93
2023/08/31 11:07:43;;;;;;;9.70;3.65;;;17.90;99.90;;;;;;4937059;29;20275;-90
2023/08/31 11:10:14;;;;;;;11.10;4.25;;;17.80;99.90;;;;;;4936319;29;20584;-91
2023/08/31 11:12:45;;;;;;;10.10;4.47;;;17.80;99.90;;;;;;4947692;28;20206;-94
2023/08/31 11:15:18;;;;;;;9.88;4.45;;;17.70;99.90;;;;;;4939358;29;20212;-92
2023/08/31 11:17:49;;;;;;;11.00;4.07;;;17.60;99.90;;;;;;4938274;29;20216;-93
2023/08/31 11:20:27;;;;;;;8.88;3.30;;;17.60;99.90;;;;;;4946843;28;20206;-91
2023/08/31 11:22:59;;;;;;;9.00;3.35;;;17.50;99.90;;;;;;4936702;29;20196;-90
2023/08/31 11:25:33;;;;;;;8.98;3.83;;;17.50;99.90;;;;;;4946672;29;20255;-90
2023/08/31 11:28:06;;;;;;;5.97;2.90;;;17.50;99.90;;;;;;4950697;29;20295;-92
2023/08/31 11:30:37;;;;;;;6.55;2.72;;;17.50;99.90;;;;;;4969933;29;20263;-91
2023/08/31 11:33:11;;;;;;;6.75;2.92;;;17.50;99.90;;;;;;4919641;29;20208;-91
2023/08/31 11:35:46;;;;;;;9.30;3.30;;;17.40;99.90;;;;;;4969853;28;20252;-90
2023/08/31 11:38:17;;;;;;;8.43;3.53;;;17.40;99.90;;;;;;4928911;29;20343;-92
2023/08/31 11:40:49;;;;;;;10.13;3.85;;;17.40;99.90;;;;;;4942110;29;20225;-91
2023/08/31 11:43:31;;;;;;;8.98;3.28;;;17.40;99.90;;;;;;4955087;29;20641;-91
2023/08/31 11:46:08;;;;;;;6.35;2.72;;;17.30;99.90;;;;;;4956484;28;20227;-91
2023/08/31 11:48:39;;;;;;;7.55;3.00;;;17.30;99.90;;;;;;4952093;28;20196;-94
2023/08/31 11:51:16;;;;;;;5.72;2.53;;;17.20;99.90;;;;;;4959580;28;20247;-90
2023/08/31 11:53:47;;;;;;;7.53;2.42;;;17.20;99.90;;;;;;4947188;29;20236;-91
2023/08/31 11:56:18;;;;;;;5.35;2.38;;;17.20;99.90;;;;;;4952312;29;20226;-91
2023/08/31 11:58:49;;;;;;;8.70;2.95;;;17.20;99.90;;;;;;4953203;28;20208;-91
2023/08/31 12:01:23;;;;;;;9.13;2.90;;;17.10;99.90;;;;;;4933039;29;20207;-94
2023/08/31 12:03:56;;;;;;;7.10;2.72;;;17.10;99.90;;;;;;4949368;29;20197;-94
2023/08/31 12:06:38;;;;;;;4.85;2.33;;;17.10;99.90;;;;;;4940575;29;20208;-93
2023/08/31 12:09:11;;;;;;;6.88;2.60;;;17.00;99.90;;;;;;4941137;29;20212;-91
2023/08/31 12:11:42;;;;;;;7.60;2.92;;;17.00;99.90;;;;;;4941229;29;20204;-92
2023/08/31 12:14:34;;;;;;;8.02;3.58;;;17.00;99.90;;;;;;4942177;29;20619;-92
2023/08/31 12:17:07;;;;;;;6.53;2.80;;;17.00;99.90;;;;;;4941951;29;20196;-95
2023/08/31 12:19:39;;;;;;;8.45;2.78;;;16.90;99.90;;;;;;4945888;29;20230;-93
2023/08/31 12:22:14;;;;;;;8.80;2.80;;;16.90;99.90;;;;;;4945576;29;20215;-93
2023/08/31 12:24:46;;;;;;;6.80;2.60;;;16.90;99.90;;;;;;4919040;29;20193;-94
2023/08/31 12:27:17;;;;;;;8.18;3.08;;;16.90;99.90;;;;;;4930887;29;20206;-94
2023/08/31 12:29:50;;;;;;;7.97;2.63;;;16.90;99.90;;;;;;4954039;29;20207;-93
2023/08/31 12:32:21;;;;;;;7.75;2.65;;;16.80;99.90;;;;;;4960712;28;20247;-92
2023/08/31 12:34:51;;;;;;;6.70;2.60;;;16.80;99.90;;;;;;4947286;28;20193;-93
2023/08/31 12:37:26;;;;;;;9.38;2.72;;;16.80;99.90;;;;;;4936960;29;20710;-93
2023/08/31 12:39:58;;;;;;;6.32;3.00;;;16.70;99.90;;;;;;4918648;29;20212;-92
2023/08/31 12:42:28;;;;;;;7.85;2.75;;;16.70;99.90;;;;;;4940938;29;20203;-92
2023/08/31 12:44:59;;;;;;;8.23;2.95;;;16.70;99.90;;;;;;4942932;29;20203;-92
2023/08/31 12:47:30;;;;;;;7.80;2.90;;;16.70;99.90;;;;;;4937963;29;20211;-92
2023/08/31 12:50:02;;;;;;;8.48;2.50;;;16.60;99.90;;;;;;4944887;29;20212;-92
2023/08/31 12:52:35;;;;;;;10.23;4.20;;;16.70;99.90;;;;;;4945272;29;20248;-93
2023/08/31 12:55:07;;;;;;;8.10;3.13;;;16.70;99.90;;;;;;4945613;29;20236;-93
2023/08/31 12:57:41;;;;;;;7.72;2.83;;;16.60;99.90;;;;;;4924293;29;20599;-94
2023/08/31 13:00:22;;;;;;;9.55;2.60;;;16.50;99.90;;;;;;4951474;28;20195;-94
2023/08/31 13:02:56;;;;;;;9.85;2.70;;;16.50;99.90;;;;;;4957925;28;20302;-93
2023/08/31 13:05:30;;;;;;;6.88;2.72;;;16.50;99.90;;;;;;4945562;29;20205;-92
2023/08/31 13:08:14;;;;;;;7.05;2.58;;;16.40;99.90;;;;;;4932235;29;20234;-92
2023/08/31 13:10:54;;;;;;;7.90;3.05;;;16.50;99.90;;;;;;4958894;29;20192;-93
2023/08/31 13:13:25;;;;;;;9.82;3.10;;;16.50;99.90;;;;;;4946703;29;20197;-91
2023/08/31 13:15:56;;;;;;;9.43;3.08;;;16.50;99.90;;;;;;4945403;29;20203;-93
2023/08/31 13:18:28;;;;;;;8.73;3.03;;;16.50;99.90;;;;;;4941743;29;20239;-93
2023/08/31 13:21:00;;;;;;;8.60;3.13;;;16.50;99.90;;;;;;4922129;29;20201;-93